Time;durP1;ratioP1;P1;durP2;ratioP2;P2;SDS_P1;SDS_P2;PMS_P1;PMS_P2;Temp;Humidity;BMP_temperature;BMP_pressure;BME280_temperature;BME280_humidity;BME280_pressure;Samples;Min_cycle;Max_cycle;Signal;HPM_P1;HPM_P2
2022/10/14 00:01:32;;;;;;;6.60;5.10;;;14.10;99.90;;;;;;4988036;28;20177;-72
2022/10/14 00:03:58;;;;;;;8.80;6.30;;;14.00;99.90;;;;;;4994820;28;20170;-73
2022/10/14 00:06:27;;;;;;;8.67;5.50;;;14.00;99.90;;;;;;4994688;28;20180;-73
2022/10/14 00:08:53;;;;;;;10.93;6.50;;;13.90;99.90;;;;;;4994891;28;20792;-72
2022/10/14 00:11:25;;;;;;;10.20;7.13;;;13.90;99.90;;;;;;4993742;28;20412;-74
2022/10/14 00:13:57;;;;;;;9.30;6.20;;;13.90;99.90;;;;;;4993658;28;20448;-73
2022/10/14 00:16:34;;;;;;;9.93;5.83;;;13.90;99.90;;;;;;4986957;28;20458;-72
2022/10/14 00:19:01;;;;;;;8.47;5.90;;;14.00;99.90;;;;;;4994719;28;20459;-72
2022/10/14 00:21:28;;;;;;;7.67;6.27;;;13.90;99.90;;;;;;4993292;28;20812;-76
2022/10/14 00:23:54;;;;;;;7.50;6.37;;;13.90;99.90;;;;;;4994680;28;20419;-72
2022/10/14 00:26:35;;;;;;;9.70;6.80;;;13.90;99.90;;;;;;4994560;28;20745;-73
2022/10/14 00:29:02;;;;;;;9.77;6.97;;;13.90;99.90;;;;;;4993378;28;20961;-72
2022/10/14 00:31:28;;;;;;;8.03;5.40;;;14.00;99.90;;;;;;4995115;28;20426;-75
2022/10/14 00:33:55;;;;;;;11.20;7.23;;;13.90;99.90;;;;;;4995057;28;20412;-74
2022/10/14 00:36:23;;;;;;;12.50;6.20;;;13.90;99.90;;;;;;4996096;28;20169;-75
2022/10/14 00:38:49;;;;;;;9.43;7.00;;;13.90;99.90;;;;;;4996243;28;20487;-75
2022/10/14 00:41:27;;;;;;;12.13;6.20;;;14.00;99.90;;;;;;4994303;28;20933;-75
2022/10/14 00:44:11;;;;;;;9.20;7.47;;;14.00;99.90;;;;;;4993892;28;20466;-75
2022/10/14 00:46:40;;;;;;;8.23;6.50;;;13.90;99.90;;;;;;4994354;28;20526;-75
2022/10/14 00:49:16;;;;;;;8.93;6.67;;;13.90;99.90;;;;;;4994135;28;20486;-74
2022/10/14 00:51:48;;;;;;;8.20;6.40;;;13.90;99.90;;;;;;4994027;28;20507;-75
2022/10/14 00:54:16;;;;;;;10.47;6.50;;;13.80;99.90;;;;;;4993106;28;20971;-75
2022/10/14 00:56:43;;;;;;;9.80;7.30;;;13.80;99.90;;;;;;4994109;28;20775;-73
2022/10/14 00:59:10;;;;;;;13.17;6.77;;;13.80;99.90;;;;;;4994058;28;20818;-73
2022/10/14 01:01:36;;;;;;;13.03;7.50;;;13.80;99.90;;;;;;4993229;28;20435;-75
2022/10/14 01:04:01;;;;;;;8.37;6.50;;;13.80;99.90;;;;;;4974682;28;20934;-72
2022/10/14 01:06:41;;;;;;;7.40;5.77;;;13.70;99.90;;;;;;4975414;28;20671;-73
2022/10/14 01:09:15;;;;;;;10.77;7.20;;;13.70;99.90;;;;;;4974580;28;20180;-74
2022/10/14 01:12:07;;;;;;;9.50;7.17;;;13.80;99.90;;;;;;4974481;28;20420;-72
2022/10/14 01:14:48;;;;;;;13.77;7.07;;;13.70;99.90;;;;;;4980781;28;20458;-74
2022/10/14 01:17:38;;;;;;;7.73;6.93;;;13.80;99.90;;;;;;4992536;28;20527;-74
2022/10/14 01:20:40;;;;;;;7.67;6.40;;;13.80;99.90;;;;;;4993764;28;20847;-75
2022/10/14 01:23:16;;;;;;;11.63;6.87;;;13.80;99.90;;;;;;4993776;28;20422;-73
2022/10/14 01:25:59;;;;;;;8.80;6.17;;;13.70;99.90;;;;;;4993272;28;20406;-73
2022/10/14 01:28:24;;;;;;;10.50;7.13;;;13.80;99.90;;;;;;4974447;28;20432;-73
2022/10/14 01:30:59;;;;;;;13.27;7.80;;;13.80;99.90;;;;;;4974099;28;20389;-73
2022/10/14 01:33:31;;;;;;;9.40;7.37;;;13.70;99.90;;;;;;4973900;28;20584;-75
2022/10/14 01:36:03;;;;;;;11.00;6.87;;;13.70;99.90;;;;;;4973671;28;20396;-73
2022/10/14 01:38:33;;;;;;;13.53;8.20;;;13.70;99.90;;;;;;4974179;28;20793;-73
2022/10/14 01:41:27;;;;;;;13.60;7.23;;;13.60;99.90;;;;;;4973904;28;20515;-73
2022/10/14 01:43:56;;;;;;;8.50;6.70;;;13.60;99.90;;;;;;4974034;28;20397;-73
2022/10/14 01:46:25;;;;;;;9.20;7.93;;;13.50;99.90;;;;;;4973544;28;20499;-73
2022/10/14 01:48:55;;;;;;;10.37;7.53;;;13.50;99.90;;;;;;4973576;28;20437;-73
2022/10/14 01:51:31;;;;;;;12.40;9.23;;;13.50;99.90;;;;;;4985323;28;20416;-73
2022/10/14 01:54:07;;;;;;;8.33;7.40;;;13.50;99.90;;;;;;4993076;28;20408;-73
2022/10/14 01:56:34;;;;;;;9.17;5.97;;;13.50;99.90;;;;;;4992664;28;20423;-74
2022/10/14 01:59:01;;;;;;;6.40;5.80;;;13.50;99.90;;;;;;4992944;28;20546;-74
2022/10/14 02:01:26;;;;;;;11.30;7.03;;;13.50;99.90;;;;;;4993092;28;20400;-75
2022/10/14 02:03:52;;;;;;;9.80;6.70;;;13.50;99.90;;;;;;4977865;28;20507;-74
2022/10/14 02:06:22;;;;;;;7.03;6.10;;;13.50;99.90;;;;;;5007435;28;20169;-73
2022/10/14 02:09:02;;;;;;;8.60;6.00;;;13.50;99.90;;;;;;4975325;28;20679;-76
2022/10/14 02:11:35;;;;;;;9.27;6.67;;;13.50;99.90;;;;;;4978493;28;20416;-75
2022/10/14 02:14:19;;;;;;;9.30;6.70;;;13.50;99.90;;;;;;4976802;28;20907;-75
2022/10/14 02:17:18;;;;;;;6.20;5.57;;;13.50;99.90;;;;;;5005123;28;20447;-75
2022/10/14 02:19:49;;;;;;;7.80;5.50;;;13.60;99.90;;;;;;4990266;28;21017;-73
2022/10/14 02:22:42;;;;;;;19.53;6.77;;;13.60;99.90;;;;;;4973330;28;20405;-74
2022/10/14 02:25:20;;;;;;;7.37;6.00;;;13.60;99.90;;;;;;4988653;28;20413;-72
2022/10/14 02:27:47;;;;;;;9.03;6.77;;;13.60;99.90;;;;;;4984107;28;20443;-76
2022/10/14 02:30:14;;;;;;;8.60;6.50;;;13.60;99.90;;;;;;4994110;28;20801;-75
2022/10/14 02:32:41;;;;;;;6.47;5.57;;;13.70;99.90;;;;;;4995736;28;20436;-76
2022/10/14 02:35:09;;;;;;;10.20;6.00;;;13.70;99.90;;;;;;4993888;28;20406;-73
2022/10/14 02:37:37;;;;;;;7.97;6.67;;;13.70;99.90;;;;;;4992419;28;21158;-73
2022/10/14 02:40:17;;;;;;;10.10;7.33;;;13.70;99.90;;;;;;4976718;28;20475;-75
2022/10/14 02:42:42;;;;;;;7.87;6.63;;;13.70;99.90;;;;;;4973180;28;20895;-74
2022/10/14 02:45:10;;;;;;;8.97;6.97;;;13.70;99.90;;;;;;4972901;28;20401;-74
2022/10/14 02:47:35;;;;;;;8.90;7.73;;;13.70;99.90;;;;;;4978398;28;20250;-74
2022/10/14 02:50:02;;;;;;;8.73;7.37;;;13.70;99.90;;;;;;4992334;28;20898;-76
2022/10/14 02:52:28;;;;;;;9.20;6.87;;;13.70;99.90;;;;;;4992660;28;20165;-73
2022/10/14 02:54:53;;;;;;;10.47;7.60;;;13.70;99.90;;;;;;4992169;28;20404;-75
2022/10/14 02:57:19;;;;;;;13.33;6.70;;;13.80;99.90;;;;;;4989354;28;20584;-74
2022/10/14 02:59:44;;;;;;;8.83;6.80;;;13.80;99.90;;;;;;4972994;28;20205;-74
2022/10/14 03:02:11;;;;;;;15.20;8.03;;;13.70;99.90;;;;;;4972367;28;20685;-76
2022/10/14 03:04:37;;;;;;;9.37;6.67;;;13.70;99.90;;;;;;4975476;28;20432;-75
2022/10/14 03:07:02;;;;;;;8.07;6.50;;;13.70;99.90;;;;;;4972836;28;20425;-75
2022/10/14 03:09:28;;;;;;;8.43;7.17;;;13.70;99.90;;;;;;4979346;28;20173;-74
2022/10/14 03:11:53;;;;;;;17.67;8.37;;;13.80;99.90;;;;;;4996971;28;20202;-76
2022/10/14 03:14:19;;;;;;;9.37;7.50;;;13.80;99.90;;;;;;4996139;28;20605;-76
2022/10/14 03:16:44;;;;;;;11.27;7.57;;;13.90;99.90;;;;;;4998037;28;20173;-76
2022/10/14 03:19:10;;;;;;;10.73;6.80;;;13.90;99.90;;;;;;4997708;28;20706;-74
2022/10/14 03:21:35;;;;;;;10.90;7.50;;;13.90;99.90;;;;;;4997262;28;20202;-75
2022/10/14 03:24:01;;;;;;;10.07;8.10;;;13.90;99.90;;;;;;4995993;28;20173;-73
2022/10/14 03:26:27;;;;;;;10.23;8.10;;;13.90;99.90;;;;;;4995558;28;20172;-73
2022/10/14 03:28:53;;;;;;;13.00;8.07;;;13.90;99.90;;;;;;4995817;28;20197;-73
2022/10/14 03:31:18;;;;;;;8.00;6.57;;;13.90;99.90;;;;;;4995749;28;20495;-73
2022/10/14 03:33:44;;;;;;;8.60;7.37;;;13.90;99.90;;;;;;4990714;28;20205;-73
2022/10/14 03:36:09;;;;;;;11.87;6.63;;;13.90;99.90;;;;;;4975958;28;20189;-73
2022/10/14 03:38:35;;;;;;;9.17;7.50;;;13.90;99.90;;;;;;4976015;28;20217;-73
2022/10/14 03:41:00;;;;;;;8.53;6.83;;;13.90;99.90;;;;;;4976202;28;20176;-73
2022/10/14 03:43:27;;;;;;;10.90;7.20;;;13.90;99.90;;;;;;4976019;28;20256;-73
2022/10/14 03:45:52;;;;;;;8.43;5.90;;;13.90;99.90;;;;;;4982579;28;20219;-76
2022/10/14 03:48:18;;;;;;;10.50;7.10;;;13.90;99.90;;;;;;4997053;28;20427;-76
2022/10/14 03:50:45;;;;;;;11.40;8.27;;;13.90;99.90;;;;;;4995656;28;20185;-76
2022/10/14 03:53:11;;;;;;;10.50;6.23;;;13.80;99.90;;;;;;4996018;28;20176;-73
2022/10/14 03:55:37;;;;;;;14.27;7.53;;;13.90;99.90;;;;;;4995092;28;20443;-73
2022/10/14 03:58:02;;;;;;;9.27;7.53;;;13.80;99.90;;;;;;4986441;28;20488;-73
2022/10/14 04:00:28;;;;;;;8.07;7.20;;;13.90;99.90;;;;;;4975824;28;20186;-73
2022/10/14 04:02:54;;;;;;;8.30;5.53;;;13.90;99.90;;;;;;4975712;28;20536;-75
2022/10/14 04:05:19;;;;;;;9.20;6.67;;;13.90;99.90;;;;;;4975479;28;20173;-74
2022/10/14 04:07:45;;;;;;;9.03;5.93;;;14.00;99.90;;;;;;4975683;28;20249;-75
2022/10/14 04:10:10;;;;;;;9.10;6.63;;;14.00;99.90;;;;;;4983318;28;20632;-75
2022/10/14 04:12:36;;;;;;;13.83;6.97;;;13.90;99.90;;;;;;4995050;28;20197;-73
2022/10/14 04:15:01;;;;;;;7.50;6.70;;;13.90;99.90;;;;;;4994716;28;20161;-73
2022/10/14 04:17:27;;;;;;;8.63;6.50;;;13.90;99.90;;;;;;4994736;28;20185;-73
2022/10/14 04:19:52;;;;;;;19.97;14.70;;;13.90;99.90;;;;;;4993486;28;20192;-73
2022/10/14 04:22:18;;;;;;;12.30;7.47;;;14.00;99.90;;;;;;4987300;28;20158;-73
2022/10/14 04:24:44;;;;;;;8.40;6.90;;;14.00;99.90;;;;;;4990057;28;20173;-73
2022/10/14 04:27:09;;;;;;;14.10;6.67;;;14.00;99.90;;;;;;4973956;28;20436;-73
2022/10/14 04:29:35;;;;;;;6.60;4.83;;;14.00;99.90;;;;;;4975259;28;20252;-72
2022/10/14 04:32:00;;;;;;;8.40;6.80;;;13.90;99.90;;;;;;4975161;28;20170;-72
2022/10/14 04:34:26;;;;;;;6.53;5.20;;;13.90;99.90;;;;;;4981803;28;20173;-72
2022/10/14 04:36:52;;;;;;;7.10;6.10;;;13.90;99.90;;;;;;4994455;28;20180;-72
2022/10/14 04:39:18;;;;;;;9.83;6.13;;;14.00;99.90;;;;;;4993268;28;20204;-72
2022/10/14 04:41:43;;;;;;;7.93;6.00;;;13.90;99.90;;;;;;4994517;28;20921;-72
2022/10/14 04:44:09;;;;;;;7.70;5.97;;;13.90;99.90;;;;;;4996198;28;20165;-75
2022/10/14 04:46:35;;;;;;;6.53;5.57;;;14.00;99.90;;;;;;4988687;28;20170;-74
2022/10/14 04:49:00;;;;;;;7.70;5.63;;;14.00;99.90;;;;;;4977554;28;20296;-74
2022/10/14 04:51:26;;;;;;;9.73;6.80;;;14.00;99.90;;;;;;4992419;28;20558;-74
2022/10/14 04:53:51;;;;;;;5.77;5.13;;;14.10;99.90;;;;;;4975846;28;20605;-75
2022/10/14 04:56:17;;;;;;;10.73;5.20;;;14.10;99.90;;;;;;4991712;28;20176;-72
2022/10/14 04:58:42;;;;;;;6.93;5.50;;;14.10;99.90;;;;;;4982080;28;20197;-74
2022/10/14 05:01:08;;;;;;;6.37;5.00;;;14.10;99.90;;;;;;4995707;28;20192;-75
2022/10/14 05:03:33;;;;;;;6.57;5.20;;;14.10;99.90;;;;;;4995817;28;20242;-75
2022/10/14 05:05:59;;;;;;;7.07;4.80;;;14.10;99.90;;;;;;4995247;28;20173;-73
2022/10/14 05:08:25;;;;;;;5.23;4.70;;;14.10;99.90;;;;;;4995119;28;20195;-75
2022/10/14 05:10:50;;;;;;;5.23;4.73;;;14.10;99.90;;;;;;4986848;28;20181;-76
2022/10/14 05:13:16;;;;;;;6.50;5.40;;;14.10;99.90;;;;;;4975871;28;20845;-74
2022/10/14 05:15:42;;;;;;;6.97;5.40;;;14.00;99.90;;;;;;4975506;28;20233;-75
2022/10/14 05:18:10;;;;;;;6.50;5.00;;;14.10;99.90;;;;;;4994137;28;20215;-73
2022/10/14 05:20:37;;;;;;;6.93;4.97;;;14.10;99.90;;;;;;4995429;28;20192;-75
2022/10/14 05:23:03;;;;;;;5.33;4.67;;;14.10;99.90;;;;;;4993270;28;20777;-72
2022/10/14 05:25:28;;;;;;;8.37;4.90;;;14.10;99.90;;;;;;4993381;28;20442;-72
2022/10/14 05:27:54;;;;;;;7.70;4.97;;;14.00;99.90;;;;;;4991163;28;20882;-73
2022/10/14 05:30:19;;;;;;;7.27;4.77;;;14.00;99.90;;;;;;4988617;28;20178;-72
2022/10/14 05:32:45;;;;;;;5.57;4.53;;;14.00;99.90;;;;;;4974086;28;20176;-72
2022/10/14 05:35:11;;;;;;;5.10;3.90;;;14.00;99.90;;;;;;4973676;28;20176;-72
2022/10/14 05:37:36;;;;;;;5.37;4.33;;;14.00;99.90;;;;;;4975379;28;20309;-72
2022/10/14 05:40:03;;;;;;;6.57;4.30;;;14.00;99.90;;;;;;4993304;28;20282;-72
2022/10/14 05:42:28;;;;;;;4.77;4.13;;;13.90;99.90;;;;;;4993363;28;20184;-73
2022/10/14 05:44:54;;;;;;;4.07;3.60;;;13.90;99.90;;;;;;4994879;28;20747;-75
2022/10/14 05:47:19;;;;;;;5.13;3.73;;;13.90;99.90;;;;;;4996338;28;20214;-75
2022/10/14 05:49:45;;;;;;;6.17;4.13;;;13.90;99.90;;;;;;4973532;28;20196;-72
2022/10/14 05:52:10;;;;;;;5.10;3.90;;;13.90;99.90;;;;;;4973785;28;20586;-72
2022/10/14 05:54:36;;;;;;;4.57;3.73;;;13.90;99.90;;;;;;4973473;28;20172;-73
2022/10/14 05:57:01;;;;;;;7.03;4.30;;;13.90;99.90;;;;;;4973598;28;20197;-72
2022/10/14 05:59:28;;;;;;;5.00;4.50;;;14.00;99.90;;;;;;4991891;28;20239;-72
2022/10/14 06:01:55;;;;;;;4.90;3.50;;;14.00;99.90;;;;;;4993044;28;20200;-72
2022/10/14 06:04:21;;;;;;;7.20;3.53;;;14.00;99.90;;;;;;4992640;28;20408;-73
2022/10/14 06:06:47;;;;;;;3.60;3.00;;;14.00;99.90;;;;;;4992878;28;20460;-72
2022/10/14 06:09:13;;;;;;;3.83;3.20;;;14.00;99.90;;;;;;4974872;28;20835;-72
2022/10/14 06:11:39;;;;;;;7.00;3.80;;;14.00;99.90;;;;;;4973492;28;20173;-71
2022/10/14 06:14:04;;;;;;;3.73;3.27;;;14.00;99.90;;;;;;4973379;28;20405;-71
2022/10/14 06:16:30;;;;;;;3.70;3.40;;;14.00;99.90;;;;;;4973170;28;20173;-72
2022/10/14 06:18:55;;;;;;;4.00;3.17;;;14.00;99.90;;;;;;4973262;28;20606;-74
2022/10/14 06:21:21;;;;;;;4.73;3.53;;;14.00;99.90;;;;;;4973916;28;20192;-75
2022/10/14 06:23:47;;;;;;;5.00;4.00;;;14.00;99.90;;;;;;4977107;28;20177;-74
2022/10/14 06:26:12;;;;;;;4.37;3.80;;;14.00;99.90;;;;;;4974434;28;20428;-75
2022/10/14 06:28:39;;;;;;;4.03;3.63;;;14.10;99.90;;;;;;4989793;28;20259;-74
2022/10/14 06:31:05;;;;;;;4.17;3.57;;;14.10;99.90;;;;;;4995092;28;20245;-75
2022/10/14 06:33:31;;;;;;;3.80;3.23;;;14.10;99.90;;;;;;4998507;28;20448;-75
2022/10/14 06:35:57;;;;;;;5.20;3.23;;;14.10;99.90;;;;;;4995266;28;20412;-75
2022/10/14 06:38:23;;;;;;;2.90;2.63;;;14.10;99.90;;;;;;4982334;28;20471;-72
2022/10/14 06:40:53;;;;;;;4.17;3.27;;;14.20;99.90;;;;;;4973200;28;20181;-72
2022/10/14 06:43:19;;;;;;;4.47;3.20;;;14.10;99.90;;;;;;4975343;28;20669;-72
2022/10/14 06:45:45;;;;;;;6.77;3.03;;;14.20;99.90;;;;;;4976990;28;20405;-72
2022/10/14 06:48:11;;;;;;;6.33;2.60;;;14.20;99.90;;;;;;4977171;28;20444;-71
2022/10/14 06:50:37;;;;;;;4.30;3.90;;;14.20;99.90;;;;;;4976976;28;20926;-72
2022/10/14 06:53:02;;;;;;;4.20;3.53;;;14.20;99.90;;;;;;4977067;28;20235;-73
2022/10/14 06:55:28;;;;;;;6.17;4.37;;;14.30;99.90;;;;;;4991736;28;20173;-72
2022/10/14 06:57:54;;;;;;;5.20;3.87;;;14.30;99.90;;;;;;4976811;28;20198;-71
2022/10/14 07:00:19;;;;;;;5.33;4.00;;;14.30;99.90;;;;;;4976950;28;20514;-73
2022/10/14 07:02:45;;;;;;;4.00;3.60;;;14.30;99.90;;;;;;4976858;28;20647;-74
2022/10/14 07:05:11;;;;;;;4.63;3.30;;;14.30;99.90;;;;;;5007809;28;20177;-75
2022/10/14 07:07:36;;;;;;;4.90;4.03;;;14.30;99.90;;;;;;4976699;28;20659;-71
2022/10/14 07:10:02;;;;;;;5.37;3.60;;;14.30;99.90;;;;;;4976744;28;20178;-71
2022/10/14 07:12:28;;;;;;;4.03;3.10;;;14.30;99.90;;;;;;4976698;28;20173;-72
2022/10/14 07:14:53;;;;;;;5.53;4.50;;;14.30;99.90;;;;;;4976333;28;21002;-72
2022/10/14 07:17:19;;;;;;;6.30;4.83;;;14.30;99.90;;;;;;4976554;28;20198;-73
2022/10/14 07:19:45;;;;;;;6.57;4.40;;;14.30;99.90;;;;;;4975203;28;20240;-72
2022/10/14 07:22:10;;;;;;;3.77;3.47;;;14.30;99.90;;;;;;4975533;28;20174;-72
2022/10/14 07:24:36;;;;;;;4.80;3.83;;;14.30;99.90;;;;;;4974938;28;20599;-71
2022/10/14 07:27:01;;;;;;;4.90;3.73;;;14.40;99.90;;;;;;4976364;28;20272;-75
2022/10/14 07:29:27;;;;;;;7.90;4.90;;;14.40;99.90;;;;;;4976382;28;20208;-72
2022/10/14 07:31:54;;;;;;;6.17;4.10;;;14.30;99.90;;;;;;4976258;28;20170;-71
2022/10/14 07:34:19;;;;;;;5.73;4.00;;;14.40;99.90;;;;;;4989390;28;20423;-71
2022/10/14 07:36:45;;;;;;;5.63;3.67;;;14.50;99.90;;;;;;4995628;28;21025;-71
2022/10/14 07:39:10;;;;;;;4.03;3.47;;;14.50;99.90;;;;;;4994333;28;20601;-73
2022/10/14 07:41:37;;;;;;;6.40;4.40;;;14.60;99.90;;;;;;4995578;28;20199;-73
2022/10/14 07:44:07;;;;;;;6.17;4.00;;;14.60;99.90;;;;;;4995606;28;20165;-73
2022/10/14 07:46:35;;;;;;;5.23;3.43;;;14.60;99.90;;;;;;4980027;28;20452;-73
2022/10/14 07:49:18;;;;;;;8.70;4.90;;;14.60;99.90;;;;;;4990830;28;20460;-73
2022/10/14 07:51:45;;;;;;;7.77;4.00;;;14.60;99.90;;;;;;4976041;28;20413;-73
2022/10/14 07:54:14;;;;;;;5.67;4.83;;;14.70;99.90;;;;;;4975571;28;20773;-74
2022/10/14 07:56:42;;;;;;;10.93;4.33;;;14.70;99.90;;;;;;4990801;28;20441;-73
2022/10/14 07:59:07;;;;;;;5.80;4.33;;;14.80;99.90;;;;;;4995168;28;20514;-73
2022/10/14 08:01:33;;;;;;;6.40;4.90;;;14.80;99.90;;;;;;4995077;28;20443;-73
2022/10/14 08:03:58;;;;;;;6.30;4.13;;;14.80;99.90;;;;;;4995141;28;20172;-73
2022/10/14 08:06:24;;;;;;;5.37;4.23;;;14.90;99.90;;;;;;4994957;28;20531;-73
2022/10/14 08:08:49;;;;;;;7.30;5.10;;;14.90;99.90;;;;;;4990403;28;20217;-73
2022/10/14 08:11:22;;;;;;;7.20;4.70;;;14.80;99.90;;;;;;4975551;28;20260;-72
2022/10/14 08:13:47;;;;;;;6.40;4.43;;;14.80;99.90;;;;;;4975593;28;20257;-73
2022/10/14 08:16:22;;;;;;;7.33;4.70;;;14.90;99.90;;;;;;4975226;28;20950;-73
2022/10/14 08:18:48;;;;;;;6.20;4.70;;;14.80;99.90;;;;;;4975509;28;20197;-73
2022/10/14 08:21:15;;;;;;;6.00;4.63;;;14.80;99.90;;;;;;4982712;28;20772;-73
2022/10/14 08:23:40;;;;;;;6.40;5.27;;;14.90;99.90;;;;;;4994929;28;20419;-73
2022/10/14 08:26:20;;;;;;;8.07;5.10;;;15.00;99.90;;;;;;4994584;28;20392;-73
2022/10/14 08:28:47;;;;;;;7.33;4.50;;;15.10;99.90;;;;;;4994668;28;20192;-71
2022/10/14 08:31:13;;;;;;;5.40;4.90;;;15.20;99.90;;;;;;4993466;28;20419;-70
2022/10/14 08:33:39;;;;;;;8.07;4.77;;;15.30;99.90;;;;;;4992362;28;20423;-73
2022/10/14 08:36:04;;;;;;;6.17;5.50;;;15.30;99.90;;;;;;4994313;28;20240;-72
2022/10/14 08:38:30;;;;;;;6.67;5.47;;;15.40;99.90;;;;;;5003440;28;20192;-74
2022/10/14 08:41:22;;;;;;;7.47;5.70;;;15.50;99.90;;;;;;5002891;28;20545;-72
2022/10/14 08:44:14;;;;;;;11.97;6.50;;;15.50;99.90;;;;;;5002419;28;20268;-72
2022/10/14 08:46:45;;;;;;;6.10;4.80;;;15.60;99.90;;;;;;4979338;28;20786;-72
2022/10/14 08:49:16;;;;;;;6.60;4.80;;;15.60;99.90;;;;;;4974870;28;20444;-72
2022/10/14 08:51:45;;;;;;;6.80;5.10;;;15.60;99.90;;;;;;4974909;28;20409;-73
2022/10/14 08:54:17;;;;;;;10.17;6.30;;;15.60;99.90;;;;;;4974812;28;20413;-72
2022/10/14 08:56:43;;;;;;;5.70;4.40;;;15.60;99.90;;;;;;4975401;28;20423;-72
2022/10/14 08:59:15;;;;;;;7.13;5.33;;;15.60;99.90;;;;;;4993287;28;21178;-73
2022/10/14 09:01:51;;;;;;;5.80;4.90;;;15.50;99.90;;;;;;4994018;28;20408;-73
2022/10/14 09:04:17;;;;;;;6.63;5.10;;;15.60;99.90;;;;;;4993005;28;20411;-71
2022/10/14 09:06:45;;;;;;;6.50;4.80;;;15.60;99.90;;;;;;4993274;28;20416;-73
2022/10/14 09:09:37;;;;;;;9.27;5.47;;;15.60;99.90;;;;;;4989741;28;20178;-72
2022/10/14 09:12:10;;;;;;;11.23;6.13;;;15.70;99.90;;;;;;4974235;28;20452;-73
2022/10/14 09:14:41;;;;;;;7.10;6.17;;;15.60;99.90;;;;;;4972760;28;20793;-72
2022/10/14 09:17:17;;;;;;;6.57;5.47;;;15.60;99.90;;;;;;4974248;28;20437;-72
2022/10/14 09:20:15;;;;;;;10.53;5.30;;;15.70;99.90;;;;;;4974070;28;20491;-73
2022/10/14 09:22:40;;;;;;;7.37;4.57;;;15.70;99.90;;;;;;4987589;28;20427;-73
2022/10/14 09:25:15;;;;;;;7.90;4.70;;;15.70;99.90;;;;;;4992820;28;20424;-74
2022/10/14 09:27:41;;;;;;;9.63;4.40;;;15.80;99.90;;;;;;4992114;28;20443;-73
2022/10/14 09:30:13;;;;;;;11.20;5.33;;;15.90;99.90;;;;;;4999565;28;20495;-74
2022/10/14 09:32:54;;;;;;;7.80;5.60;;;16.00;99.90;;;;;;4997156;28;20435;-74
2022/10/14 09:35:24;;;;;;;6.33;5.20;;;16.10;99.90;;;;;;4994566;28;20425;-73
2022/10/14 09:37:51;;;;;;;4.97;4.20;;;16.20;99.90;;;;;;4973634;28;20433;-73
2022/10/14 09:40:19;;;;;;;7.40;4.33;;;16.30;99.90;;;;;;4973737;28;20405;-73
2022/10/14 09:42:54;;;;;;;5.47;4.30;;;16.30;99.90;;;;;;4973914;28;20762;-73
2022/10/14 09:45:22;;;;;;;5.50;3.63;;;16.50;99.90;;;;;;4974111;28;20432;-73
2022/10/14 09:47:58;;;;;;;7.43;4.37;;;16.60;99.90;;;;;;4992935;28;20424;-73
2022/10/14 09:50:45;;;;;;;5.33;4.20;;;16.60;99.90;;;;;;4992869;28;20423;-74
2022/10/14 09:53:17;;;;;;;5.70;4.53;;;16.80;99.90;;;;;;4993011;28;20404;-73
2022/10/14 09:55:49;;;;;;;8.60;4.20;;;16.80;99.90;;;;;;5007725;28;20428;-74
2022/10/14 09:58:26;;;;;;;5.27;4.40;;;16.80;99.90;;;;;;4984903;28;20825;-73
2022/10/14 10:00:59;;;;;;;5.77;4.87;;;16.90;99.90;;;;;;4973445;28;20424;-73
2022/10/14 10:03:34;;;;;;;5.33;4.30;;;16.90;99.90;;;;;;4973010;28;20413;-75
2022/10/14 10:06:08;;;;;;;8.10;5.07;;;16.90;99.90;;;;;;4975520;28;20408;-75
2022/10/14 10:08:52;;;;;;;4.93;4.00;;;16.90;99.90;;;;;;4977141;28;20607;-75
2022/10/14 10:11:36;;;;;;;7.83;4.93;;;17.00;99.90;;;;;;4990679;28;20419;-72
2022/10/14 10:14:32;;;;;;;9.03;4.83;;;17.00;99.90;;;;;;5014602;28;20414;-75
2022/10/14 10:17:06;;;;;;;8.07;4.67;;;16.90;99.90;;;;;;5004063;28;20416;-74
2022/10/14 10:19:48;;;;;;;7.97;5.07;;;16.90;99.90;;;;;;5011884;28;20458;-75
2022/10/14 10:22:15;;;;;;;5.30;4.30;;;16.90;99.90;;;;;;5010047;28;20431;-75
2022/10/14 10:24:41;;;;;;;5.30;4.67;;;16.90;99.90;;;;;;4996698;28;20408;-74
2022/10/14 10:27:23;;;;;;;5.03;3.87;;;16.80;99.90;;;;;;4996975;28;20434;-73
2022/10/14 10:29:49;;;;;;;5.87;4.40;;;16.70;99.90;;;;;;4997705;28;20276;-72
2022/10/14 10:32:30;;;;;;;5.80;4.57;;;16.60;99.90;;;;;;4992568;28;20495;-71
2022/10/14 10:35:07;;;;;;;5.90;4.30;;;16.50;99.90;;;;;;4991497;28;20177;-73
2022/10/14 10:37:42;;;;;;;7.30;4.77;;;16.30;99.90;;;;;;4995173;28;20428;-74
2022/10/14 10:40:21;;;;;;;5.87;4.77;;;16.20;99.90;;;;;;4981427;28;20462;-73
2022/10/14 10:43:17;;;;;;;5.73;4.20;;;16.20;99.90;;;;;;4980281;28;20412;-73
2022/10/14 10:46:01;;;;;;;7.90;4.33;;;16.10;99.90;;;;;;4972921;28;20471;-73
2022/10/14 10:48:46;;;;;;;8.13;5.00;;;16.20;99.90;;;;;;4973317;28;20440;-74
2022/10/14 10:51:27;;;;;;;9.63;5.10;;;16.30;99.90;;;;;;4978775;28;20413;-74
2022/10/14 10:54:32;;;;;;;6.53;4.93;;;16.40;99.90;;;;;;4973332;28;20412;-73
2022/10/14 10:57:05;;;;;;;9.27;4.80;;;16.50;99.90;;;;;;4973079;28;20533;-72
2022/10/14 10:59:43;;;;;;;8.57;6.17;;;16.60;99.90;;;;;;4972906;28;20866;-72
2022/10/14 11:02:11;;;;;;;6.00;4.80;;;16.70;99.90;;;;;;4989683;28;20407;-72
2022/10/14 11:04:42;;;;;;;5.73;4.70;;;16.80;99.90;;;;;;4992058;28;20400;-73
2022/10/14 11:13:35;;;;;;;5.67;3.77;;;17.00;99.90;;;;;;4979352;28;20452;-72
2022/10/14 11:16:32;;;;;;;8.07;4.67;;;17.00;99.90;;;;;;4972597;28;20409;-72
2022/10/14 11:19:19;;;;;;;8.20;4.80;;;17.10;99.90;;;;;;4972700;28;20452;-72
2022/10/14 11:22:16;;;;;;;9.30;3.93;;;17.10;99.90;;;;;;4972929;28;20460;-72
2022/10/14 11:24:53;;;;;;;6.50;4.60;;;17.10;99.90;;;;;;4972747;28;20421;-72
2022/10/14 11:27:24;;;;;;;7.23;4.70;;;17.10;99.90;;;;;;4972738;28;20761;-72
2022/10/14 11:30:17;;;;;;;8.23;5.23;;;17.00;99.90;;;;;;4975510;28;20902;-72
2022/10/14 11:33:14;;;;;;;7.73;4.97;;;17.00;99.90;;;;;;4976444;28;20397;-73
2022/10/14 11:36:00;;;;;;;6.20;5.07;;;16.90;99.90;;;;;;4976359;28;20894;-72
2022/10/14 11:38:39;;;;;;;8.20;5.30;;;16.90;99.90;;;;;;4976116;28;20544;-72
2022/10/14 11:41:41;;;;;;;7.60;5.23;;;17.00;99.90;;;;;;4980332;28;20424;-74
2022/10/14 11:44:17;;;;;;;8.50;5.97;;;17.00;99.90;;;;;;4976283;28;20758;-73
2022/10/14 11:46:50;;;;;;;6.07;4.43;;;17.00;99.90;;;;;;4982651;28;21001;-73
2022/10/14 11:49:24;;;;;;;10.00;5.60;;;17.00;99.90;;;;;;4975943;28;20794;-73
2022/10/14 11:52:33;;;;;;;12.50;6.33;;;16.90;99.90;;;;;;4974812;28;20910;-73
2022/10/14 11:55:09;;;;;;;7.60;5.80;;;16.90;99.90;;;;;;4979193;28;20428;-73
2022/10/14 11:57:44;;;;;;;11.30;5.70;;;16.80;99.90;;;;;;4995380;28;20435;-74
2022/10/14 12:00:27;;;;;;;12.57;6.80;;;16.90;99.90;;;;;;4995331;28;20451;-73
2022/10/14 12:03:10;;;;;;;11.03;6.37;;;16.90;99.90;;;;;;5010304;28;20412;-74
2022/10/14 12:05:38;;;;;;;11.07;6.23;;;16.90;99.90;;;;;;4993670;28;20408;-74
2022/10/14 12:08:12;;;;;;;6.63;5.90;;;17.00;99.90;;;;;;4980394;28;20976;-73
2022/10/14 12:10:44;;;;;;;8.73;5.90;;;17.00;99.90;;;;;;4975711;28;20411;-73
2022/10/14 12:13:14;;;;;;;16.70;6.63;;;17.10;99.90;;;;;;4975758;28;20921;-73
2022/10/14 12:15:46;;;;;;;7.90;5.97;;;16.90;99.90;;;;;;4975328;28;20407;-73
2022/10/14 12:18:11;;;;;;;8.97;6.30;;;16.90;99.90;;;;;;4975384;28;20455;-74
2022/10/14 12:20:48;;;;;;;7.90;5.97;;;16.90;99.90;;;;;;4994507;28;20841;-73
2022/10/14 12:23:32;;;;;;;9.30;6.10;;;16.80;99.90;;;;;;4994929;28;20169;-74
2022/10/14 12:26:14;;;;;;;13.30;7.43;;;16.80;99.90;;;;;;5010103;28;20913;-74
2022/10/14 12:28:41;;;;;;;10.90;6.27;;;16.80;99.90;;;;;;4993597;28;20438;-74
2022/10/14 12:31:18;;;;;;;13.53;7.00;;;16.80;99.90;;;;;;4986224;28;20425;-74
2022/10/14 12:34:12;;;;;;;8.53;6.53;;;16.90;99.90;;;;;;4975437;28;20467;-73
2022/10/14 12:36:39;;;;;;;11.83;5.90;;;16.90;99.90;;;;;;4975628;28;20785;-74
2022/10/14 12:39:21;;;;;;;7.07;6.13;;;17.00;99.90;;;;;;4975703;28;20448;-74
2022/10/14 12:41:54;;;;;;;8.27;6.53;;;17.10;99.90;;;;;;4974817;28;20475;-73
2022/10/14 12:44:22;;;;;;;10.93;7.63;;;17.10;99.90;;;;;;4990589;28;20424;-74
2022/10/14 12:46:50;;;;;;;13.53;6.60;;;17.10;99.90;;;;;;5010410;28;20405;-74
2022/10/14 12:49:25;;;;;;;7.40;6.00;;;17.10;99.90;;;;;;4995144;28;20518;-75
2022/10/14 12:51:56;;;;;;;13.37;6.53;;;17.20;99.90;;;;;;4994969;28;20419;-74
2022/10/14 12:54:23;;;;;;;9.10;6.27;;;17.20;99.90;;;;;;4994152;28;20423;-72
2022/10/14 12:57:01;;;;;;;11.40;7.30;;;17.10;99.90;;;;;;4975387;28;20429;-73
2022/10/14 12:59:35;;;;;;;9.07;6.40;;;17.10;99.90;;;;;;4975166;28;20977;-74
2022/10/14 13:02:23;;;;;;;6.60;5.63;;;17.10;99.90;;;;;;4975213;28;20407;-73
2022/10/14 13:04:52;;;;;;;9.77;6.67;;;17.10;99.90;;;;;;4974950;28;20440;-75
2022/10/14 13:07:17;;;;;;;10.40;6.10;;;17.20;99.90;;;;;;4977085;28;20444;-75
2022/10/14 13:09:44;;;;;;;9.73;6.20;;;17.30;99.90;;;;;;4994269;28;20424;-73
2022/10/14 13:12:35;;;;;;;9.70;6.27;;;17.40;99.90;;;;;;4994805;28;20215;-73